sensor_id;sensor_type;location;lat;lon;timestamp;pressure;altitude;pressure_sealevel;temperature;humidity
11017;BME280;54687;50.800;6.772;2023-03-18T00:01:36;61038.41;;;-144.06;58.81
11017;BME280;54687;50.800;6.772;2023-03-18T00:04:03;61074.03;;;-144.06;59.03
11017;BME280;54687;50.800;6.772;2023-03-18T00:06:29;61071.94;;;-144.06;59.28
11017;BME280;54687;50.800;6.772;2023-03-18T00:08:56;61044.69;;;-144.06;59.13
11017;BME280;54687;50.800;6.772;2023-03-18T00:11:23;61017.44;;;-144.06;59.27
11017;BME280;54687;50.800;6.772;2023-03-18T00:13:51;61000.69;;;-144.06;59.15
11017;BME280;54687;50.800;6.772;2023-03-18T00:16:18;61034.22;;;-144.06;59.38
11017;BME280;54687;50.800;6.772;2023-03-18T00:18:46;61025.84;;;-144.06;59.34
11017;BME280;54687;50.800;6.772;2023-03-18T00:21:13;61055.19;;;-144.06;59.42
11017;BME280;54687;50.800;6.772;2023-03-18T00:23:41;61023.75;;;-144.06;59.40
11017;BME280;54687;50.800;6.772;2023-03-18T00:26:08;61036.31;;;-144.06;59.30
11017;BME280;54687;50.800;6.772;2023-03-18T00:28:35;61034.22;;;-144.06;59.36
11017;BME280;54687;50.800;6.772;2023-03-18T00:31:04;61044.69;;;-144.06;59.49
11017;BME280;54687;50.800;6.772;2023-03-18T00:33:33;61021.63;;;-144.06;59.38
11017;BME280;54687;50.800;6.772;2023-03-18T00:36:01;61009.06;;;-144.06;59.32
11017;BME280;54687;50.800;6.772;2023-03-18T00:38:28;61051.00;;;-144.06;59.25
11017;BME280;54687;50.800;6.772;2023-03-18T00:40:55;61034.22;;;-144.06;59.33
11017;BME280;54687;50.800;6.772;2023-03-18T00:43:35;61038.41;;;-144.06;59.44
11017;BME280;54687;50.800;6.772;2023-03-18T00:46:11;61027.94;;;-144.06;59.44
11017;BME280;54687;50.800;6.772;2023-03-18T00:48:38;61040.50;;;-144.06;59.75
11017;BME280;54687;50.800;6.772;2023-03-18T00:51:06;61092.91;;;-144.06;59.76
11017;BME280;54687;50.800;6.772;2023-03-18T00:53:32;61009.06;;;-144.06;59.97
11017;BME280;54687;50.800;6.772;2023-03-18T00:55:59;61051.00;;;-144.06;60.06
11017;BME280;54687;50.800;6.772;2023-03-18T00:58:25;61021.63;;;-144.06;60.15
11017;BME280;54687;50.800;6.772;2023-03-18T01:00:52;61025.84;;;-144.06;60.30
11017;BME280;54687;50.800;6.772;2023-03-18T01:03:19;61030.03;;;-144.06;60.19
11017;BME280;54687;50.800;6.772;2023-03-18T01:05:49;61027.94;;;-144.06;60.36
11017;BME280;54687;50.800;6.772;2023-03-18T01:08:19;61042.59;;;-144.06;60.50
11017;BME280;54687;50.800;6.772;2023-03-18T01:10:46;61000.69;;;-144.06;60.49
11017;BME280;54687;50.800;6.772;2023-03-18T01:13:12;61042.59;;;-144.06;60.62
11017;BME280;54687;50.800;6.772;2023-03-18T01:15:39;61069.84;;;-144.06;60.75
11017;BME280;54687;50.800;6.772;2023-03-18T01:18:07;61063.56;;;-144.06;60.94
11017;BME280;54687;50.800;6.772;2023-03-18T01:20:35;61021.63;;;-144.06;61.39
11017;BME280;54687;50.800;6.772;2023-03-18T01:23:02;61053.09;;;-144.06;61.61
11017;BME280;54687;50.800;6.772;2023-03-18T01:25:30;61017.44;;;-144.06;61.55
11017;BME280;54687;50.800;6.772;2023-03-18T01:27:59;61051.00;;;-144.06;61.56
11017;BME280;54687;50.800;6.772;2023-03-18T01:30:26;61097.09;;;-144.06;61.41
11017;BME280;54687;50.800;6.772;2023-03-18T01:32:53;61067.75;;;-144.06;61.54
11017;BME280;54687;50.800;6.772;2023-03-18T01:35:20;61074.03;;;-144.06;61.77
11017;BME280;54687;50.800;6.772;2023-03-18T01:37:48;61038.41;;;-144.06;61.79
11017;BME280;54687;50.800;6.772;2023-03-18T01:40:15;61011.16;;;-144.06;61.78
11017;BME280;54687;50.800;6.772;2023-03-18T01:42:47;61006.97;;;-144.06;61.72
11017;BME280;54687;50.800;6.772;2023-03-18T01:45:18;61027.94;;;-144.06;61.62
11017;BME280;54687;50.800;6.772;2023-03-18T01:47:46;61017.44;;;-144.06;61.75
11017;BME280;54687;50.800;6.772;2023-03-18T01:50:16;61084.53;;;-144.06;61.66
11017;BME280;54687;50.800;6.772;2023-03-18T01:52:45;61086.63;;;-144.06;61.75
11017;BME280;54687;50.800;6.772;2023-03-18T01:55:16;61027.94;;;-144.06;61.63
11017;BME280;54687;50.800;6.772;2023-03-18T01:57:47;61051.00;;;-144.06;61.81
11017;BME280;54687;50.800;6.772;2023-03-18T02:00:15;61046.78;;;-144.06;62.15
11017;BME280;54687;50.800;6.772;2023-03-18T02:02:43;61030.03;;;-144.06;62.34
11017;BME280;54687;50.800;6.772;2023-03-18T02:05:13;60996.50;;;-144.06;62.57
11017;BME280;54687;50.800;6.772;2023-03-18T02:07:41;61034.22;;;-144.06;62.48
11017;BME280;54687;50.800;6.772;2023-03-18T02:10:15;61055.19;;;-144.06;62.64
11017;BME280;54687;50.800;6.772;2023-03-18T02:12:47;61025.84;;;-144.06;62.77
11017;BME280;54687;50.800;6.772;2023-03-18T02:15:18;61053.09;;;-144.06;62.76
11017;BME280;54687;50.800;6.772;2023-03-18T02:17:51;61046.78;;;-144.06;63.00
11017;BME280;54687;50.800;6.772;2023-03-18T02:20:29;61071.94;;;-144.06;62.88
11017;BME280;54687;50.800;6.772;2023-03-18T02:23:05;61092.91;;;-144.06;63.32
11017;BME280;54687;50.800;6.772;2023-03-18T02:28:23;61053.09;;;-144.06;63.87
11017;BME280;54687;50.800;6.772;2023-03-18T02:30:55;61040.50;;;-144.06;64.11
11017;BME280;54687;50.800;6.772;2023-03-18T02:33:25;61034.22;;;-144.06;64.45
11017;BME280;54687;50.800;6.772;2023-03-18T02:35:56;61042.59;;;-144.06;64.82
11017;BME280;54687;50.800;6.772;2023-03-18T02:38:23;61080.34;;;-144.06;64.83
11017;BME280;54687;50.800;6.772;2023-03-18T02:40:51;61030.03;;;-144.06;64.77
11017;BME280;54687;50.800;6.772;2023-03-18T02:43:22;61046.78;;;-144.06;64.84
11017;BME280;54687;50.800;6.772;2023-03-18T02:46:00;61038.41;;;-144.06;64.97
11017;BME280;54687;50.800;6.772;2023-03-18T02:48:34;61059.38;;;-144.06;65.02
11017;BME280;54687;50.800;6.772;2023-03-18T02:51:01;61088.72;;;-144.06;64.92
11017;BME280;54687;50.800;6.772;2023-03-18T02:53:28;61055.19;;;-144.06;65.60
11017;BME280;54687;50.800;6.772;2023-03-18T02:55:55;61078.25;;;-144.06;65.48
11017;BME280;54687;50.800;6.772;2023-03-18T02:58:24;61076.13;;;-144.06;65.31
11017;BME280;54687;50.800;6.772;2023-03-18T03:00:50;61084.53;;;-144.06;65.65
11017;BME280;54687;50.800;6.772;2023-03-18T03:03:17;61042.59;;;-144.06;65.84
11017;BME280;54687;50.800;6.772;2023-03-18T03:05:44;61071.94;;;-144.06;65.80
11017;BME280;54687;50.800;6.772;2023-03-18T03:08:10;61065.66;;;-144.06;65.90
11017;BME280;54687;50.800;6.772;2023-03-18T03:10:38;61046.78;;;-144.06;65.91
11017;BME280;54687;50.800;6.772;2023-03-18T03:13:05;61080.34;;;-144.06;66.19
11017;BME280;54687;50.800;6.772;2023-03-18T03:15:33;61088.72;;;-144.06;66.47
11017;BME280;54687;50.800;6.772;2023-03-18T03:17:59;61082.44;;;-144.06;66.18
11017;BME280;54687;50.800;6.772;2023-03-18T03:20:26;61042.59;;;-144.06;66.13
11017;BME280;54687;50.800;6.772;2023-03-18T03:22:52;61051.00;;;-144.06;66.27
11017;BME280;54687;50.800;6.772;2023-03-18T03:25:19;61109.69;;;-144.06;66.18
11017;BME280;54687;50.800;6.772;2023-03-18T03:27:46;61013.25;;;-144.06;66.34
11017;BME280;54687;50.800;6.772;2023-03-18T03:30:14;61076.13;;;-144.06;66.72
11017;BME280;54687;50.800;6.772;2023-03-18T03:32:43;61095.00;;;-144.06;66.98
11017;BME280;54687;50.800;6.772;2023-03-18T03:35:12;61034.22;;;-144.06;67.39
11017;BME280;54687;50.800;6.772;2023-03-18T03:37:39;61080.34;;;-144.06;67.42
11017;BME280;54687;50.800;6.772;2023-03-18T03:40:07;61071.94;;;-144.06;67.71
11017;BME280;54687;50.800;6.772;2023-03-18T03:42:34;61030.03;;;-144.06;67.55
11017;BME280;54687;50.800;6.772;2023-03-18T03:45:02;61067.75;;;-144.06;67.95
11017;BME280;54687;50.800;6.772;2023-03-18T03:47:29;61090.81;;;-144.06;68.40
11017;BME280;54687;50.800;6.772;2023-03-18T03:49:57;61059.38;;;-144.06;68.82
11017;BME280;54687;50.800;6.772;2023-03-18T03:52:24;61101.28;;;-144.06;68.84
11017;BME280;54687;50.800;6.772;2023-03-18T03:54:51;61034.22;;;-144.06;68.89
11017;BME280;54687;50.800;6.772;2023-03-18T03:57:17;61105.50;;;-144.06;68.84
11017;BME280;54687;50.800;6.772;2023-03-18T03:59:44;61071.94;;;-144.06;68.39
11017;BME280;54687;50.800;6.772;2023-03-18T04:02:11;61080.34;;;-144.06;68.46
11017;BME280;54687;50.800;6.772;2023-03-18T04:04:37;61042.59;;;-144.06;68.76
11017;BME280;54687;50.800;6.772;2023-03-18T04:07:05;61084.53;;;-144.06;68.74
11017;BME280;54687;50.800;6.772;2023-03-18T04:09:32;61067.75;;;-144.06;68.88
11017;BME280;54687;50.800;6.772;2023-03-18T04:12:00;61067.75;;;-144.06;68.92
11017;BME280;54687;50.800;6.772;2023-03-18T04:14:28;61051.00;;;-144.06;68.69
11017;BME280;54687;50.800;6.772;2023-03-18T04:16:54;61105.50;;;-144.06;68.80
11017;BME280;54687;50.800;6.772;2023-03-18T04:19:22;61105.50;;;-144.06;68.72
11017;BME280;54687;50.800;6.772;2023-03-18T04:21:49;61095.00;;;-144.06;69.00
11017;BME280;54687;50.800;6.772;2023-03-18T04:24:19;61057.28;;;-144.06;68.78
11017;BME280;54687;50.800;6.772;2023-03-18T04:26:46;61071.94;;;-144.06;68.89
11017;BME280;54687;50.800;6.772;2023-03-18T04:29:13;61118.06;;;-144.06;69.01
11017;BME280;54687;50.800;6.772;2023-03-18T04:31:40;61059.38;;;-144.06;68.87
11017;BME280;54687;50.800;6.772;2023-03-18T04:34:06;61074.03;;;-144.06;68.72
11017;BME280;54687;50.800;6.772;2023-03-18T04:36:34;61038.41;;;-144.06;69.01
11017;BME280;54687;50.800;6.772;2023-03-18T04:39:01;61136.94;;;-144.06;68.84
11017;BME280;54687;50.800;6.772;2023-03-18T04:41:29;61063.56;;;-144.06;68.84
11017;BME280;54687;50.800;6.772;2023-03-18T04:43:55;61063.56;;;-144.06;68.97
11017;BME280;54687;50.800;6.772;2023-03-18T04:46:23;61082.44;;;-144.06;68.62
11017;BME280;54687;50.800;6.772;2023-03-18T04:48:54;61076.13;;;-144.06;68.69
11017;BME280;54687;50.800;6.772;2023-03-18T04:51:20;61051.00;;;-144.06;68.34
11017;BME280;54687;50.800;6.772;2023-03-18T04:53:47;61071.94;;;-144.06;68.34
11017;BME280;54687;50.800;6.772;2023-03-18T04:56:13;61122.25;;;-144.06;68.50
11017;BME280;54687;50.800;6.772;2023-03-18T04:58:41;61053.09;;;-144.06;68.25
11017;BME280;54687;50.800;6.772;2023-03-18T05:01:08;61055.19;;;-144.06;68.47
11017;BME280;54687;50.800;6.772;2023-03-18T05:03:37;61080.34;;;-144.06;68.25
11017;BME280;54687;50.800;6.772;2023-03-18T05:06:04;61071.94;;;-144.06;68.21
11017;BME280;54687;50.800;6.772;2023-03-18T05:08:32;61059.38;;;-144.06;67.94
11017;BME280;54687;50.800;6.772;2023-03-18T05:10:59;61076.13;;;-144.06;67.92
11017;BME280;54687;50.800;6.772;2023-03-18T05:13:25;61078.25;;;-144.06;67.54
11017;BME280;54687;50.800;6.772;2023-03-18T05:15:54;61063.56;;;-144.06;67.71
11017;BME280;54687;50.800;6.772;2023-03-18T05:18:20;61059.38;;;-144.06;67.52
11017;BME280;54687;50.800;6.772;2023-03-18T05:20:47;61067.75;;;-144.06;67.52
11017;BME280;54687;50.800;6.772;2023-03-18T05:23:13;61092.91;;;-144.06;67.66
11017;BME280;54687;50.800;6.772;2023-03-18T05:25:40;61055.19;;;-144.06;67.69
11017;BME280;54687;50.800;6.772;2023-03-18T05:28:06;61048.88;;;-144.06;68.04
11017;BME280;54687;50.800;6.772;2023-03-18T05:30:33;61080.34;;;-144.06;67.79
11017;BME280;54687;50.800;6.772;2023-03-18T05:33:05;61132.75;;;-144.06;67.97
11017;BME280;54687;50.800;6.772;2023-03-18T05:35:32;61071.94;;;-144.06;68.10
11017;BME280;54687;50.800;6.772;2023-03-18T05:37:58;61059.38;;;-144.06;68.11
11017;BME280;54687;50.800;6.772;2023-03-18T05:40:25;61071.94;;;-144.06;68.33
11017;BME280;54687;50.800;6.772;2023-03-18T05:42:51;61092.91;;;-144.06;68.23
11017;BME280;54687;50.800;6.772;2023-03-18T05:45:18;61071.94;;;-144.06;68.20
11017;BME280;54687;50.800;6.772;2023-03-18T05:47:45;61126.44;;;-144.06;68.25
11017;BME280;54687;50.800;6.772;2023-03-18T05:50:13;61082.44;;;-144.06;68.09
11017;BME280;54687;50.800;6.772;2023-03-18T05:52:39;61036.31;;;-144.06;68.15
11017;BME280;54687;50.800;6.772;2023-03-18T05:55:07;61122.25;;;-144.06;67.90
11017;BME280;54687;50.800;6.772;2023-03-18T05:57:34;61113.88;;;-144.06;68.25
11017;BME280;54687;50.800;6.772;2023-03-18T06:00:01;61084.53;;;-144.06;68.25
11017;BME280;54687;50.800;6.772;2023-03-18T06:02:27;61097.09;;;-144.06;68.04
11017;BME280;54687;50.800;6.772;2023-03-18T06:04:54;61084.53;;;-144.06;67.98
11017;BME280;54687;50.800;6.772;2023-03-18T06:07:24;61101.28;;;-144.06;67.84
11017;BME280;54687;50.800;6.772;2023-03-18T06:09:51;61084.53;;;-144.06;67.72
11017;BME280;54687;50.800;6.772;2023-03-18T06:12:18;61057.28;;;-144.06;67.64
11017;BME280;54687;50.800;6.772;2023-03-18T06:14:47;61080.34;;;-144.06;67.54
11017;BME280;54687;50.800;6.772;2023-03-18T06:17:14;61088.72;;;-144.06;67.54
11017;BME280;54687;50.800;6.772;2023-03-18T06:19:40;61088.72;;;-144.06;67.86
11017;BME280;54687;50.800;6.772;2023-03-18T06:22:07;61101.28;;;-144.06;67.76
11017;BME280;54687;50.800;6.772;2023-03-18T06:24:35;61101.28;;;-144.06;67.64
11017;BME280;54687;50.800;6.772;2023-03-18T06:27:02;61101.28;;;-144.06;67.64
11017;BME280;54687;50.800;6.772;2023-03-18T06:29:29;61101.28;;;-144.06;67.55
11017;BME280;54687;50.800;6.772;2023-03-18T06:31:56;61145.31;;;-144.06;67.28
11017;BME280;54687;50.800;6.772;2023-03-18T06:34:22;61038.41;;;-144.06;67.25
11017;BME280;54687;50.800;6.772;2023-03-18T06:36:49;61105.50;;;-144.06;67.25
11017;BME280;54687;50.800;6.772;2023-03-18T06:39:16;61071.94;;;-144.06;67.30
11017;BME280;54687;50.800;6.772;2023-03-18T06:41:44;61084.53;;;-144.06;67.52
11017;BME280;54687;50.800;6.772;2023-03-18T06:44:11;61040.50;;;-144.06;67.32
11017;BME280;54687;50.800;6.772;2023-03-18T06:46:38;61076.13;;;-144.06;67.00
11017;BME280;54687;50.800;6.772;2023-03-18T06:49:05;61078.25;;;-144.06;67.14
11017;BME280;54687;50.800;6.772;2023-03-18T06:51:32;61055.19;;;-144.06;66.74
11017;BME280;54687;50.800;6.772;2023-03-18T06:53:59;61084.53;;;-144.06;66.75
11017;BME280;54687;50.800;6.772;2023-03-18T06:56:26;61069.84;;;-144.06;66.30
11017;BME280;54687;50.800;6.772;2023-03-18T06:58:53;61063.56;;;-144.06;66.42
11017;BME280;54687;50.800;6.772;2023-03-18T07:01:20;61097.09;;;-144.06;66.29
11017;BME280;54687;50.800;6.772;2023-03-18T07:03:46;61038.41;;;-144.06;66.14
11017;BME280;54687;50.800;6.772;2023-03-18T07:06:13;61080.34;;;-144.06;65.92
11017;BME280;54687;50.800;6.772;2023-03-18T07:08:40;61090.81;;;-144.06;65.55
11017;BME280;54687;50.800;6.772;2023-03-18T07:11:07;61080.34;;;-144.06;65.53
11017;BME280;54687;50.800;6.772;2023-03-18T07:13:33;61046.78;;;-144.06;65.50
11017;BME280;54687;50.800;6.772;2023-03-18T07:16:01;61071.94;;;-144.06;65.21
11017;BME280;54687;50.800;6.772;2023-03-18T07:18:29;61059.38;;;-144.06;64.94
11017;BME280;54687;50.800;6.772;2023-03-18T07:20:56;61088.72;;;-144.06;64.84
11017;BME280;54687;50.800;6.772;2023-03-18T07:23:22;61071.94;;;-144.06;64.68
11017;BME280;54687;50.800;6.772;2023-03-18T07:25:49;61025.84;;;-144.06;64.81
11017;BME280;54687;50.800;6.772;2023-03-18T07:28:16;61071.94;;;-144.06;64.84
11017;BME280;54687;50.800;6.772;2023-03-18T07:30:42;61059.38;;;-144.06;64.84
11017;BME280;54687;50.800;6.772;2023-03-18T07:33:10;61042.59;;;-144.06;64.76
11017;BME280;54687;50.800;6.772;2023-03-18T07:35:37;61071.94;;;-144.06;64.93
11017;BME280;54687;50.800;6.772;2023-03-18T07:38:05;61061.47;;;-144.06;64.77
11017;BME280;54687;50.800;6.772;2023-03-18T07:40:32;61076.13;;;-144.06;64.66
11017;BME280;54687;50.800;6.772;2023-03-18T07:43:00;61071.94;;;-144.06;64.33
11017;BME280;54687;50.800;6.772;2023-03-18T07:45:26;61076.13;;;-144.06;64.24
11017;BME280;54687;50.800;6.772;2023-03-18T07:47:54;61036.31;;;-144.06;63.89
11017;BME280;54687;50.800;6.772;2023-03-18T07:50:22;61038.41;;;-144.06;63.62
11017;BME280;54687;50.800;6.772;2023-03-18T07:52:48;61055.19;;;-144.06;63.37
11017;BME280;54687;50.800;6.772;2023-03-18T07:55:15;61046.78;;;-144.06;62.95
11017;BME280;54687;50.800;6.772;2023-03-18T07:57:41;61034.22;;;-144.06;62.76
11017;BME280;54687;50.800;6.772;2023-03-18T08:00:10;61030.03;;;-144.06;62.52
11017;BME280;54687;50.800;6.772;2023-03-18T08:02:37;61013.25;;;-144.06;62.04
11017;BME280;54687;50.800;6.772;2023-03-18T08:05:04;61036.31;;;-144.06;61.90
11017;BME280;54687;50.800;6.772;2023-03-18T08:07:34;61025.84;;;-144.06;61.64
11017;BME280;54687;50.800;6.772;2023-03-18T08:10:01;61017.44;;;-144.06;61.80
11017;BME280;54687;50.800;6.772;2023-03-18T08:12:28;61042.59;;;-144.06;61.53
11017;BME280;54687;50.800;6.772;2023-03-18T08:14:54;61055.19;;;-144.06;61.32
11017;BME280;54687;50.800;6.772;2023-03-18T08:17:22;61009.06;;;-144.06;61.29
11017;BME280;54687;50.800;6.772;2023-03-18T08:19:48;61013.25;;;-144.06;61.25
11017;BME280;54687;50.800;6.772;2023-03-18T08:22:15;61013.25;;;-144.06;61.06
11017;BME280;54687;50.800;6.772;2023-03-18T08:24:43;61042.59;;;-144.06;61.02
11017;BME280;54687;50.800;6.772;2023-03-18T08:27:09;61021.63;;;-144.06;60.75
11017;BME280;54687;50.800;6.772;2023-03-18T08:29:36;61051.00;;;-144.06;60.88
11017;BME280;54687;50.800;6.772;2023-03-18T08:32:03;61048.88;;;-144.06;60.53
11017;BME280;54687;50.800;6.772;2023-03-18T08:34:30;60998.59;;;-144.06;59.94
11017;BME280;54687;50.800;6.772;2023-03-18T08:36:56;61025.84;;;-144.06;59.63
11017;BME280;54687;50.800;6.772;2023-03-18T08:39:23;61030.03;;;-144.06;59.09
11017;BME280;54687;50.800;6.772;2023-03-18T08:41:52;60998.59;;;-144.06;58.33
11017;BME280;54687;50.800;6.772;2023-03-18T08:44:19;61021.63;;;-144.06;58.06
11017;BME280;54687;50.800;6.772;2023-03-18T08:46:45;60983.91;;;-144.06;57.71
11017;BME280;54687;50.800;6.772;2023-03-18T08:49:12;60975.53;;;-144.06;57.70
11017;BME280;54687;50.800;6.772;2023-03-18T08:51:39;61004.88;;;-144.06;57.39
11017;BME280;54687;50.800;6.772;2023-03-18T08:54:06;61025.84;;;-144.06;56.86
11017;BME280;54687;50.800;6.772;2023-03-18T08:56:33;61021.63;;;-144.06;56.07
11017;BME280;54687;50.800;6.772;2023-03-18T08:59:01;61000.69;;;-144.06;56.26
11017;BME280;54687;50.800;6.772;2023-03-18T09:01:28;60992.28;;;-144.06;55.86
11017;BME280;54687;50.800;6.772;2023-03-18T09:03:54;60992.28;;;-144.06;55.60
11017;BME280;54687;50.800;6.772;2023-03-18T09:06:23;60990.19;;;-144.06;55.29
11017;BME280;54687;50.800;6.772;2023-03-18T09:08:49;60965.03;;;-144.06;55.10
11017;BME280;54687;50.800;6.772;2023-03-18T09:11:16;60954.56;;;-144.06;54.49
11017;BME280;54687;50.800;6.772;2023-03-18T09:13:42;60967.13;;;-144.06;54.28
11017;BME280;54687;50.800;6.772;2023-03-18T09:16:10;60981.81;;;-144.06;54.21
11017;BME280;54687;50.800;6.772;2023-03-18T09:18:37;60975.53;;;-144.06;54.14
11017;BME280;54687;50.800;6.772;2023-03-18T09:21:05;60952.47;;;-144.06;54.37
11017;BME280;54687;50.800;6.772;2023-03-18T09:23:32;60960.84;;;-144.06;54.49
11017;BME280;54687;50.800;6.772;2023-03-18T09:25:59;60983.91;;;-144.06;54.52
11017;BME280;54687;50.800;6.772;2023-03-18T09:28:26;60948.28;;;-144.06;54.64
11017;BME280;54687;50.800;6.772;2023-03-18T09:30:53;60914.72;;;-144.06;54.14
11017;BME280;54687;50.800;6.772;2023-03-18T09:33:21;60954.56;;;-144.06;54.10
11017;BME280;54687;50.800;6.772;2023-03-18T09:35:49;60962.94;;;-144.06;54.24
11017;BME280;54687;50.800;6.772;2023-03-18T09:38:17;60971.34;;;-144.06;53.51
11017;BME280;54687;50.800;6.772;2023-03-18T09:40:50;60967.13;;;-144.06;53.55
11017;BME280;54687;50.800;6.772;2023-03-18T09:43:35;60960.84;;;-144.06;53.05
11017;BME280;54687;50.800;6.772;2023-03-18T09:46:12;60912.63;;;-144.06;52.66
11017;BME280;54687;50.800;6.772;2023-03-18T09:48:54;60941.97;;;-144.06;52.63
11017;BME280;54687;50.800;6.772;2023-03-18T09:51:39;60929.41;;;-144.06;52.12
11017;BME280;54687;50.800;6.772;2023-03-18T09:54:13;60918.94;;;-144.06;52.49
11017;BME280;54687;50.800;6.772;2023-03-18T09:56:43;60958.75;;;-144.06;51.84
11017;BME280;54687;50.800;6.772;2023-03-18T09:59:15;60918.94;;;-144.06;51.51
11017;BME280;54687;50.800;6.772;2023-03-18T10:01:48;60916.84;;;-144.06;50.94
11017;BME280;54687;50.800;6.772;2023-03-18T10:04:21;60904.25;;;-144.06;51.31
11017;BME280;54687;50.800;6.772;2023-03-18T10:06:53;60941.97;;;-144.06;50.67
11017;BME280;54687;50.800;6.772;2023-03-18T10:09:24;60975.53;;;-144.06;49.73
11017;BME280;54687;50.800;6.772;2023-03-18T10:11:55;60900.06;;;-144.06;50.16
11017;BME280;54687;50.800;6.772;2023-03-18T10:14:33;60914.72;;;-144.06;49.35
11017;BME280;54687;50.800;6.772;2023-03-18T10:17:11;60923.13;;;-144.06;49.16
11017;BME280;54687;50.800;6.772;2023-03-18T10:19:45;60916.84;;;-144.06;48.76
11017;BME280;54687;50.800;6.772;2023-03-18T10:22:33;60904.25;;;-144.06;48.61
11017;BME280;54687;50.800;6.772;2023-03-18T10:25:14;60900.06;;;-144.06;48.36
11017;BME280;54687;50.800;6.772;2023-03-18T10:27:50;60891.69;;;-144.06;48.67
11017;BME280;54687;50.800;6.772;2023-03-18T10:30:33;60904.25;;;-144.06;48.63
11017;BME280;54687;50.800;6.772;2023-03-18T10:33:08;60916.84;;;-144.06;48.50
11017;BME280;54687;50.800;6.772;2023-03-18T10:35:44;60906.34;;;-144.06;47.45
11017;BME280;54687;50.800;6.772;2023-03-18T10:38:17;60912.63;;;-144.06;48.42
11017;BME280;54687;50.800;6.772;2023-03-18T10:40:45;60885.38;;;-144.06;48.10
11017;BME280;54687;50.800;6.772;2023-03-18T10:43:14;60929.41;;;-144.06;48.58
11017;BME280;54687;50.800;6.772;2023-03-18T10:45:43;60904.25;;;-144.06;47.94
11017;BME280;54687;50.800;6.772;2023-03-18T10:48:15;60885.38;;;-144.06;47.95
11017;BME280;54687;50.800;6.772;2023-03-18T10:50:48;60877.00;;;-144.06;47.78
11017;BME280;54687;50.800;6.772;2023-03-18T10:53:22;60889.59;;;-144.06;47.31
11017;BME280;54687;50.800;6.772;2023-03-18T10:55:57;60900.06;;;-144.06;46.69
11017;BME280;54687;50.800;6.772;2023-03-18T10:58:26;60900.06;;;-144.06;45.92
11017;BME280;54687;50.800;6.772;2023-03-18T11:00:53;60879.09;;;-144.06;45.43
11017;BME280;54687;50.800;6.772;2023-03-18T11:03:23;60868.63;;;-144.06;45.33
11017;BME280;54687;50.800;6.772;2023-03-18T11:05:53;60866.53;;;-144.06;44.49
11017;BME280;54687;50.800;6.772;2023-03-18T11:08:29;60812.03;;;-144.06;44.05
11017;BME280;54687;50.800;6.772;2023-03-18T11:11:01;60843.47;;;-144.06;44.34
11017;BME280;54687;50.800;6.772;2023-03-18T11:13:44;60828.78;;;-144.06;43.66
11017;BME280;54687;50.800;6.772;2023-03-18T11:16:19;60803.66;;;-144.06;43.41
11017;BME280;54687;50.800;6.772;2023-03-18T11:18:48;60807.84;;;-144.06;42.99
11017;BME280;54687;50.800;6.772;2023-03-18T11:21:19;60820.41;;;-144.06;42.82
11017;BME280;54687;50.800;6.772;2023-03-18T11:23:52;60853.94;;;-144.06;42.58
11017;BME280;54687;50.800;6.772;2023-03-18T11:26:53;60807.84;;;-144.06;42.36
11017;BME280;54687;50.800;6.772;2023-03-18T11:29:22;60824.59;;;-144.06;41.92
11017;BME280;54687;50.800;6.772;2023-03-18T11:31:53;60812.03;;;-144.06;41.78
11017;BME280;54687;50.800;6.772;2023-03-18T11:34:23;60816.22;;;-144.06;41.50
11017;BME280;54687;50.800;6.772;2023-03-18T11:36:56;60864.44;;;-144.06;41.18
11017;BME280;54687;50.800;6.772;2023-03-18T11:39:27;60778.50;;;-144.06;41.66
11017;BME280;54687;50.800;6.772;2023-03-18T11:41:56;60799.44;;;-144.06;41.38
11017;BME280;54687;50.800;6.772;2023-03-18T11:44:27;60803.66;;;-144.06;41.58
11017;BME280;54687;50.800;6.772;2023-03-18T11:47:00;60774.28;;;-144.06;40.54
11017;BME280;54687;50.800;6.772;2023-03-18T11:49:28;60803.66;;;-144.06;41.01
11017;BME280;54687;50.800;6.772;2023-03-18T11:52:14;60793.16;;;-144.06;40.62
11017;BME280;54687;50.800;6.772;2023-03-18T11:55:05;60765.91;;;-144.06;40.82
11017;BME280;54687;50.800;6.772;2023-03-18T11:57:44;60786.88;;;-144.06;40.74
11017;BME280;54687;50.800;6.772;2023-03-18T12:00:24;60774.28;;;-144.06;41.09
11017;BME280;54687;50.800;6.772;2023-03-18T12:03:26;60786.88;;;-144.06;40.77
11017;BME280;54687;50.800;6.772;2023-03-18T12:06:04;60744.94;;;-144.06;40.73
11017;BME280;54687;50.800;6.772;2023-03-18T12:08:49;60803.66;;;-144.06;40.34
11017;BME280;54687;50.800;6.772;2023-03-18T12:11:30;60782.69;;;-144.06;40.57
11017;BME280;54687;50.800;6.772;2023-03-18T12:14:03;60797.34;;;-144.06;40.64
11017;BME280;54687;50.800;6.772;2023-03-18T12:16:46;60782.69;;;-144.06;39.93
11017;BME280;54687;50.800;6.772;2023-03-18T12:19:45;60755.44;;;-144.06;39.63
11017;BME280;54687;50.800;6.772;2023-03-18T12:22:35;60763.81;;;-144.06;39.51
11017;BME280;54687;50.800;6.772;2023-03-18T12:25:21;60757.53;;;-144.06;39.90
11017;BME280;54687;50.800;6.772;2023-03-18T12:27:59;60784.78;;;-144.06;39.35
11017;BME280;54687;50.800;6.772;2023-03-18T12:30:43;60765.91;;;-144.06;39.20
11017;BME280;54687;50.800;6.772;2023-03-18T12:33:23;60765.91;;;-144.06;39.72
11017;BME280;54687;50.800;6.772;2023-03-18T12:36:01;60757.53;;;-144.06;39.11
11017;BME280;54687;50.800;6.772;2023-03-18T12:38:54;60782.69;;;-144.06;39.19
11017;BME280;54687;50.800;6.772;2023-03-18T12:41:30;60763.81;;;-144.06;39.28
11017;BME280;54687;50.800;6.772;2023-03-18T12:44:12;60803.66;;;-144.06;39.97
11017;BME280;54687;50.800;6.772;2023-03-18T12:46:46;60788.97;;;-144.06;40.80
11017;BME280;54687;50.800;6.772;2023-03-18T12:49:19;60801.53;;;-144.06;40.68
11017;BME280;54687;50.800;6.772;2023-03-18T12:51:49;60782.69;;;-144.06;41.14
11017;BME280;54687;50.800;6.772;2023-03-18T12:54:23;60849.75;;;-144.06;41.65
11017;BME280;54687;50.800;6.772;2023-03-18T12:56:57;60843.47;;;-144.06;41.90